sensor_id;sensor_type;location;lat;lon;timestamp;P1;durP1;ratioP1;P2;durP2;ratioP2
48552;SDS011;34335;51.566;6.994;2023-04-24T00:01:34;1.20;;;0.60;;
48552;SDS011;34335;51.566;6.994;2023-04-24T00:04:01;0.40;;;0.30;;
48552;SDS011;34335;51.566;6.994;2023-04-24T00:06:28;2.45;;;0.45;;
48552;SDS011;34335;51.566;6.994;2023-04-24T00:08:58;1.13;;;0.45;;
48552;SDS011;34335;51.566;6.994;2023-04-24T00:11:24;1.70;;;0.38;;
48552;SDS011;34335;51.566;6.994;2023-04-24T00:13:49;0.80;;;0.40;;
48552;SDS011;34335;51.566;6.994;2023-04-24T00:16:14;1.85;;;0.90;;
48552;SDS011;34335;51.566;6.994;2023-04-24T00:18:40;1.55;;;0.60;;
48552;SDS011;34335;51.566;6.994;2023-04-24T00:21:06;2.17;;;0.60;;
48552;SDS011;34335;51.566;6.994;2023-04-24T00:23:32;0.32;;;0.30;;
48552;SDS011;34335;51.566;6.994;2023-04-24T00:25:57;1.08;;;0.57;;
48552;SDS011;34335;51.566;6.994;2023-04-24T00:28:22;0.75;;;0.40;;
48552;SDS011;34335;51.566;6.994;2023-04-24T00:30:48;0.57;;;0.40;;
48552;SDS011;34335;51.566;6.994;2023-04-24T00:33:13;0.43;;;0.30;;
48552;SDS011;34335;51.566;6.994;2023-04-24T00:35:39;3.05;;;0.85;;
48552;SDS011;34335;51.566;6.994;2023-04-24T00:38:05;1.45;;;0.60;;
48552;SDS011;34335;51.566;6.994;2023-04-24T00:40:30;0.75;;;0.47;;
48552;SDS011;34335;51.566;6.994;2023-04-24T00:42:55;2.22;;;0.50;;
48552;SDS011;34335;51.566;6.994;2023-04-24T00:45:21;0.90;;;0.70;;
48552;SDS011;34335;51.566;6.994;2023-04-24T00:47:46;0.20;;;0.20;;
48552;SDS011;34335;51.566;6.994;2023-04-24T00:50:14;0.70;;;0.40;;
48552;SDS011;34335;51.566;6.994;2023-04-24T00:52:40;0.63;;;0.40;;
48552;SDS011;34335;51.566;6.994;2023-04-24T00:55:06;0.33;;;0.30;;
48552;SDS011;34335;51.566;6.994;2023-04-24T00:57:32;0.70;;;0.60;;
48552;SDS011;34335;51.566;6.994;2023-04-24T00:59:57;1.45;;;0.50;;
48552;SDS011;34335;51.566;6.994;2023-04-24T01:02:23;2.20;;;1.30;;
48552;SDS011;34335;51.566;6.994;2023-04-24T01:04:50;1.00;;;0.50;;
48552;SDS011;34335;51.566;6.994;2023-04-24T01:07:17;3.17;;;0.60;;
48552;SDS011;34335;51.566;6.994;2023-04-24T01:09:45;1.42;;;0.75;;
48552;SDS011;34335;51.566;6.994;2023-04-24T01:12:13;1.95;;;1.00;;
48552;SDS011;34335;51.566;6.994;2023-04-24T01:14:39;2.20;;;0.80;;
48552;SDS011;34335;51.566;6.994;2023-04-24T01:17:05;5.60;;;1.02;;
48552;SDS011;34335;51.566;6.994;2023-04-24T01:19:31;3.67;;;1.20;;
48552;SDS011;34335;51.566;6.994;2023-04-24T01:21:57;2.13;;;1.20;;
48552;SDS011;34335;51.566;6.994;2023-04-24T01:24:23;0.88;;;0.60;;
48552;SDS011;34335;51.566;6.994;2023-04-24T01:26:49;3.90;;;1.73;;
48552;SDS011;34335;51.566;6.994;2023-04-24T01:29:14;2.35;;;1.17;;
48552;SDS011;34335;51.566;6.994;2023-04-24T01:31:40;1.23;;;0.80;;
48552;SDS011;34335;51.566;6.994;2023-04-24T01:34:05;1.48;;;0.77;;
48552;SDS011;34335;51.566;6.994;2023-04-24T01:36:31;3.72;;;1.10;;
48552;SDS011;34335;51.566;6.994;2023-04-24T01:38:57;2.20;;;0.98;;
48552;SDS011;34335;51.566;6.994;2023-04-24T01:41:23;2.65;;;1.02;;
48552;SDS011;34335;51.566;6.994;2023-04-24T01:43:48;1.92;;;1.02;;
48552;SDS011;34335;51.566;6.994;2023-04-24T01:46:14;1.33;;;0.88;;
48552;SDS011;34335;51.566;6.994;2023-04-24T01:48:40;2.20;;;1.25;;
48552;SDS011;34335;51.566;6.994;2023-04-24T01:51:06;5.82;;;1.52;;
48552;SDS011;34335;51.566;6.994;2023-04-24T01:53:31;5.07;;;2.10;;
48552;SDS011;34335;51.566;6.994;2023-04-24T01:55:57;3.60;;;1.77;;
48552;SDS011;34335;51.566;6.994;2023-04-24T01:58:22;3.45;;;1.98;;
48552;SDS011;34335;51.566;6.994;2023-04-24T02:00:48;2.92;;;1.50;;
48552;SDS011;34335;51.566;6.994;2023-04-24T02:03:13;3.07;;;1.77;;
48552;SDS011;34335;51.566;6.994;2023-04-24T02:05:38;4.90;;;1.97;;
48552;SDS011;34335;51.566;6.994;2023-04-24T02:08:04;5.93;;;2.27;;
48552;SDS011;34335;51.566;6.994;2023-04-24T02:10:29;3.90;;;1.70;;
48552;SDS011;34335;51.566;6.994;2023-04-24T02:12:54;4.95;;;1.60;;
48552;SDS011;34335;51.566;6.994;2023-04-24T02:15:20;4.85;;;1.85;;
48552;SDS011;34335;51.566;6.994;2023-04-24T02:17:45;2.85;;;1.85;;
48552;SDS011;34335;51.566;6.994;2023-04-24T02:20:10;3.60;;;1.67;;
48552;SDS011;34335;51.566;6.994;2023-04-24T02:22:36;3.53;;;1.35;;
48552;SDS011;34335;51.566;6.994;2023-04-24T02:25:01;3.28;;;1.38;;
48552;SDS011;34335;51.566;6.994;2023-04-24T02:27:26;3.47;;;1.80;;
48552;SDS011;34335;51.566;6.994;2023-04-24T02:29:52;2.88;;;1.63;;
48552;SDS011;34335;51.566;6.994;2023-04-24T02:32:17;3.30;;;1.63;;
48552;SDS011;34335;51.566;6.994;2023-04-24T02:34:42;4.57;;;2.65;;
48552;SDS011;34335;51.566;6.994;2023-04-24T02:37:08;2.90;;;1.38;;
48552;SDS011;34335;51.566;6.994;2023-04-24T02:39:33;5.40;;;2.73;;
48552;SDS011;34335;51.566;6.994;2023-04-24T02:41:58;3.37;;;2.23;;
48552;SDS011;34335;51.566;6.994;2023-04-24T02:44:24;6.60;;;2.50;;
48552;SDS011;34335;51.566;6.994;2023-04-24T02:46:49;6.77;;;3.03;;
48552;SDS011;34335;51.566;6.994;2023-04-24T02:49:14;4.70;;;2.87;;
48552;SDS011;34335;51.566;6.994;2023-04-24T02:51:40;6.47;;;2.78;;
48552;SDS011;34335;51.566;6.994;2023-04-24T02:54:06;5.22;;;2.13;;
48552;SDS011;34335;51.566;6.994;2023-04-24T02:56:33;5.07;;;2.50;;
48552;SDS011;34335;51.566;6.994;2023-04-24T02:58:58;6.75;;;2.92;;
48552;SDS011;34335;51.566;6.994;2023-04-24T03:01:23;6.40;;;2.47;;
48552;SDS011;34335;51.566;6.994;2023-04-24T03:03:48;8.83;;;2.87;;
48552;SDS011;34335;51.566;6.994;2023-04-24T03:06:14;5.65;;;2.85;;
48552;SDS011;34335;51.566;6.994;2023-04-24T03:08:40;4.25;;;2.65;;
48552;SDS011;34335;51.566;6.994;2023-04-24T03:11:05;6.07;;;2.78;;
48552;SDS011;34335;51.566;6.994;2023-04-24T03:13:31;7.32;;;2.97;;
48552;SDS011;34335;51.566;6.994;2023-04-24T03:15:56;6.00;;;3.57;;
48552;SDS011;34335;51.566;6.994;2023-04-24T03:18:21;5.00;;;2.30;;
48552;SDS011;34335;51.566;6.994;2023-04-24T03:20:46;7.37;;;2.97;;
48552;SDS011;34335;51.566;6.994;2023-04-24T03:23:12;8.02;;;2.58;;
48552;SDS011;34335;51.566;6.994;2023-04-24T03:25:37;7.95;;;3.10;;
48552;SDS011;34335;51.566;6.994;2023-04-24T03:28:03;7.50;;;3.37;;
48552;SDS011;34335;51.566;6.994;2023-04-24T03:30:28;3.90;;;2.17;;
48552;SDS011;34335;51.566;6.994;2023-04-24T03:32:53;7.20;;;2.90;;
48552;SDS011;34335;51.566;6.994;2023-04-24T03:35:18;6.28;;;3.25;;
48552;SDS011;34335;51.566;6.994;2023-04-24T03:37:44;7.75;;;3.47;;
48552;SDS011;34335;51.566;6.994;2023-04-24T03:40:09;4.73;;;1.97;;
48552;SDS011;34335;51.566;6.994;2023-04-24T03:42:35;6.38;;;2.92;;
48552;SDS011;34335;51.566;6.994;2023-04-24T03:45:00;7.87;;;4.00;;
48552;SDS011;34335;51.566;6.994;2023-04-24T03:47:25;6.07;;;3.57;;
48552;SDS011;34335;51.566;6.994;2023-04-24T03:49:50;6.40;;;2.37;;
48552;SDS011;34335;51.566;6.994;2023-04-24T03:52:16;7.78;;;3.38;;
48552;SDS011;34335;51.566;6.994;2023-04-24T03:54:41;9.43;;;4.20;;
48552;SDS011;34335;51.566;6.994;2023-04-24T03:57:07;14.98;;;3.05;;
48552;SDS011;34335;51.566;6.994;2023-04-24T03:59:32;7.03;;;2.87;;
48552;SDS011;34335;51.566;6.994;2023-04-24T04:01:57;6.25;;;3.60;;
48552;SDS011;34335;51.566;6.994;2023-04-24T04:04:23;11.40;;;3.30;;
48552;SDS011;34335;51.566;6.994;2023-04-24T04:06:48;7.35;;;3.95;;
48552;SDS011;34335;51.566;6.994;2023-04-24T04:09:13;7.55;;;2.70;;
48552;SDS011;34335;51.566;6.994;2023-04-24T04:11:39;10.32;;;3.72;;
48552;SDS011;34335;51.566;6.994;2023-04-24T04:14:04;8.13;;;4.15;;
48552;SDS011;34335;51.566;6.994;2023-04-24T04:16:30;8.25;;;3.70;;
48552;SDS011;34335;51.566;6.994;2023-04-24T04:18:55;6.32;;;3.03;;
48552;SDS011;34335;51.566;6.994;2023-04-24T04:21:21;5.63;;;2.58;;
48552;SDS011;34335;51.566;6.994;2023-04-24T04:23:46;6.75;;;3.08;;
48552;SDS011;34335;51.566;6.994;2023-04-24T04:26:11;5.13;;;3.00;;
48552;SDS011;34335;51.566;6.994;2023-04-24T04:28:37;8.98;;;3.33;;
48552;SDS011;34335;51.566;6.994;2023-04-24T04:31:04;6.63;;;2.90;;
48552;SDS011;34335;51.566;6.994;2023-04-24T04:33:29;7.28;;;3.30;;
48552;SDS011;34335;51.566;6.994;2023-04-24T04:35:55;7.68;;;2.80;;
48552;SDS011;34335;51.566;6.994;2023-04-24T04:38:23;11.38;;;3.05;;
48552;SDS011;34335;51.566;6.994;2023-04-24T04:40:49;6.07;;;2.92;;
48552;SDS011;34335;51.566;6.994;2023-04-24T04:43:14;10.98;;;3.30;;
48552;SDS011;34335;51.566;6.994;2023-04-24T04:45:41;6.80;;;3.28;;
48552;SDS011;34335;51.566;6.994;2023-04-24T04:48:08;9.52;;;4.10;;
48552;SDS011;34335;51.566;6.994;2023-04-24T04:50:34;9.10;;;3.70;;
48552;SDS011;34335;51.566;6.994;2023-04-24T04:53:00;8.23;;;3.17;;
48552;SDS011;34335;51.566;6.994;2023-04-24T04:55:26;5.68;;;2.42;;
48552;SDS011;34335;51.566;6.994;2023-04-24T04:57:51;5.03;;;2.85;;
48552;SDS011;34335;51.566;6.994;2023-04-24T05:00:17;8.05;;;3.30;;
48552;SDS011;34335;51.566;6.994;2023-04-24T05:02:42;5.82;;;3.35;;
48552;SDS011;34335;51.566;6.994;2023-04-24T05:05:08;9.07;;;2.53;;
48552;SDS011;34335;51.566;6.994;2023-04-24T05:07:33;5.65;;;3.22;;
48552;SDS011;34335;51.566;6.994;2023-04-24T05:09:59;7.00;;;2.97;;
48552;SDS011;34335;51.566;6.994;2023-04-24T05:12:24;5.15;;;2.80;;
48552;SDS011;34335;51.566;6.994;2023-04-24T05:14:50;9.68;;;3.50;;
48552;SDS011;34335;51.566;6.994;2023-04-24T05:17:15;8.15;;;2.72;;
48552;SDS011;34335;51.566;6.994;2023-04-24T05:19:41;7.32;;;3.67;;
48552;SDS011;34335;51.566;6.994;2023-04-24T05:22:07;8.50;;;3.90;;
48552;SDS011;34335;51.566;6.994;2023-04-24T05:24:34;4.68;;;2.35;;
48552;SDS011;34335;51.566;6.994;2023-04-24T05:27:00;6.90;;;3.67;;
48552;SDS011;34335;51.566;6.994;2023-04-24T05:29:27;5.97;;;3.30;;
48552;SDS011;34335;51.566;6.994;2023-04-24T05:31:52;8.57;;;3.72;;
48552;SDS011;34335;51.566;6.994;2023-04-24T05:34:18;13.13;;;2.33;;
48552;SDS011;34335;51.566;6.994;2023-04-24T05:36:43;4.30;;;2.67;;
48552;SDS011;34335;51.566;6.994;2023-04-24T05:39:08;6.30;;;3.00;;
48552;SDS011;34335;51.566;6.994;2023-04-24T05:41:34;5.95;;;2.65;;
48552;SDS011;34335;51.566;6.994;2023-04-24T05:43:59;4.15;;;2.33;;
48552;SDS011;34335;51.566;6.994;2023-04-24T05:46:24;3.47;;;1.93;;
48552;SDS011;34335;51.566;6.994;2023-04-24T05:48:50;4.50;;;2.33;;
48552;SDS011;34335;51.566;6.994;2023-04-24T05:51:15;4.45;;;2.88;;
48552;SDS011;34335;51.566;6.994;2023-04-24T05:53:40;5.90;;;2.85;;
48552;SDS011;34335;51.566;6.994;2023-04-24T05:56:06;4.10;;;2.60;;
48552;SDS011;34335;51.566;6.994;2023-04-24T05:58:31;4.45;;;2.50;;
48552;SDS011;34335;51.566;6.994;2023-04-24T06:00:56;6.20;;;2.83;;
48552;SDS011;34335;51.566;6.994;2023-04-24T06:03:23;4.60;;;2.42;;
48552;SDS011;34335;51.566;6.994;2023-04-24T06:05:49;3.50;;;1.70;;
48552;SDS011;34335;51.566;6.994;2023-04-24T06:08:16;5.45;;;3.03;;
48552;SDS011;34335;51.566;6.994;2023-04-24T06:10:41;5.53;;;2.90;;
48552;SDS011;34335;51.566;6.994;2023-04-24T06:13:06;5.65;;;2.58;;
48552;SDS011;34335;51.566;6.994;2023-04-24T06:15:33;10.77;;;2.90;;
48552;SDS011;34335;51.566;6.994;2023-04-24T06:17:58;2.95;;;1.58;;
48552;SDS011;34335;51.566;6.994;2023-04-24T06:20:24;4.88;;;2.72;;
48552;SDS011;34335;51.566;6.994;2023-04-24T06:22:49;5.07;;;2.22;;
48552;SDS011;34335;51.566;6.994;2023-04-24T06:25:15;4.10;;;2.53;;
48552;SDS011;34335;51.566;6.994;2023-04-24T06:27:40;4.45;;;2.47;;
48552;SDS011;34335;51.566;6.994;2023-04-24T06:30:06;5.30;;;2.20;;
48552;SDS011;34335;51.566;6.994;2023-04-24T06:32:32;7.07;;;2.90;;
48552;SDS011;34335;51.566;6.994;2023-04-24T06:34:57;6.10;;;2.93;;
48552;SDS011;34335;51.566;6.994;2023-04-24T06:37:22;4.10;;;2.10;;
48552;SDS011;34335;51.566;6.994;2023-04-24T06:39:48;4.43;;;2.55;;
48552;SDS011;34335;51.566;6.994;2023-04-24T06:42:13;5.70;;;2.38;;
48552;SDS011;34335;51.566;6.994;2023-04-24T06:44:38;3.67;;;1.73;;
48552;SDS011;34335;51.566;6.994;2023-04-24T06:47:06;4.78;;;2.53;;
48552;SDS011;34335;51.566;6.994;2023-04-24T06:49:33;4.38;;;2.10;;
48552;SDS011;34335;51.566;6.994;2023-04-24T06:51:58;5.65;;;2.00;;
48552;SDS011;34335;51.566;6.994;2023-04-24T06:54:23;4.07;;;1.90;;
48552;SDS011;34335;51.566;6.994;2023-04-24T06:56:49;6.10;;;2.87;;
48552;SDS011;34335;51.566;6.994;2023-04-24T06:59:16;2.92;;;1.90;;
48552;SDS011;34335;51.566;6.994;2023-04-24T07:01:41;4.87;;;1.90;;
48552;SDS011;34335;51.566;6.994;2023-04-24T07:04:06;3.60;;;1.87;;
48552;SDS011;34335;51.566;6.994;2023-04-24T07:06:32;4.93;;;1.77;;
48552;SDS011;34335;51.566;6.994;2023-04-24T07:08:57;6.70;;;3.03;;
48552;SDS011;34335;51.566;6.994;2023-04-24T07:11:23;3.40;;;1.88;;
48552;SDS011;34335;51.566;6.994;2023-04-24T07:13:48;5.82;;;1.77;;
48552;SDS011;34335;51.566;6.994;2023-04-24T07:16:14;4.50;;;2.15;;
48552;SDS011;34335;51.566;6.994;2023-04-24T07:18:39;3.33;;;1.77;;
48552;SDS011;34335;51.566;6.994;2023-04-24T07:21:04;1.80;;;1.00;;
48552;SDS011;34335;51.566;6.994;2023-04-24T07:23:30;4.05;;;2.08;;
48552;SDS011;34335;51.566;6.994;2023-04-24T07:25:56;4.60;;;2.08;;
48552;SDS011;34335;51.566;6.994;2023-04-24T07:28:21;6.03;;;2.07;;
48552;SDS011;34335;51.566;6.994;2023-04-24T07:30:46;3.10;;;1.50;;
48552;SDS011;34335;51.566;6.994;2023-04-24T07:33:12;2.37;;;1.30;;
48552;SDS011;34335;51.566;6.994;2023-04-24T07:35:38;2.70;;;1.45;;
48552;SDS011;34335;51.566;6.994;2023-04-24T07:38:03;3.05;;;1.33;;
48552;SDS011;34335;51.566;6.994;2023-04-24T07:40:28;3.70;;;1.48;;
48552;SDS011;34335;51.566;6.994;2023-04-24T07:42:54;2.28;;;1.10;;
48552;SDS011;34335;51.566;6.994;2023-04-24T07:45:19;2.22;;;1.27;;
48552;SDS011;34335;51.566;6.994;2023-04-24T07:47:45;5.28;;;0.93;;
48552;SDS011;34335;51.566;6.994;2023-04-24T07:50:11;3.83;;;1.13;;
48552;SDS011;34335;51.566;6.994;2023-04-24T07:52:37;1.05;;;0.73;;
48552;SDS011;34335;51.566;6.994;2023-04-24T07:55:03;1.00;;;0.70;;
48552;SDS011;34335;51.566;6.994;2023-04-24T07:57:29;1.38;;;0.73;;
48552;SDS011;34335;51.566;6.994;2023-04-24T07:59:55;0.40;;;0.30;;
48552;SDS011;34335;51.566;6.994;2023-04-24T08:02:20;1.00;;;0.85;;
48552;SDS011;34335;51.566;6.994;2023-04-24T08:04:51;1.65;;;0.57;;
48552;SDS011;34335;51.566;6.994;2023-04-24T08:07:16;1.80;;;0.50;;
48552;SDS011;34335;51.566;6.994;2023-04-24T08:09:41;0.82;;;0.50;;
48552;SDS011;34335;51.566;6.994;2023-04-24T08:12:07;2.47;;;1.27;;
48552;SDS011;34335;51.566;6.994;2023-04-24T08:14:32;4.20;;;1.00;;
48552;SDS011;34335;51.566;6.994;2023-04-24T08:16:57;1.20;;;0.63;;
48552;SDS011;34335;51.566;6.994;2023-04-24T08:19:25;0.73;;;0.43;;
48552;SDS011;34335;51.566;6.994;2023-04-24T08:21:50;1.70;;;0.80;;
48552;SDS011;34335;51.566;6.994;2023-04-24T08:24:15;1.50;;;0.57;;
48552;SDS011;34335;51.566;6.994;2023-04-24T08:26:40;2.97;;;0.57;;
48552;SDS011;34335;51.566;6.994;2023-04-24T08:29:06;0.60;;;0.47;;
48552;SDS011;34335;51.566;6.994;2023-04-24T08:31:31;1.30;;;0.70;;
48552;SDS011;34335;51.566;6.994;2023-04-24T08:33:57;1.98;;;0.90;;
48552;SDS011;34335;51.566;6.994;2023-04-24T08:36:22;0.57;;;0.30;;
48552;SDS011;34335;51.566;6.994;2023-04-24T08:38:48;0.73;;;0.30;;
48552;SDS011;34335;51.566;6.994;2023-04-24T08:41:14;1.23;;;0.60;;
48552;SDS011;34335;51.566;6.994;2023-04-24T08:43:40;1.80;;;0.77;;
48552;SDS011;34335;51.566;6.994;2023-04-24T08:46:07;2.80;;;0.82;;
48552;SDS011;34335;51.566;6.994;2023-04-24T08:48:33;1.10;;;0.70;;
48552;SDS011;34335;51.566;6.994;2023-04-24T08:50:59;1.20;;;0.82;;
48552;SDS011;34335;51.566;6.994;2023-04-24T08:53:25;1.52;;;0.90;;
48552;SDS011;34335;51.566;6.994;2023-04-24T08:55:51;0.95;;;0.60;;
48552;SDS011;34335;51.566;6.994;2023-04-24T08:58:18;1.58;;;0.80;;
48552;SDS011;34335;51.566;6.994;2023-04-24T09:00:44;2.17;;;0.77;;
48552;SDS011;34335;51.566;6.994;2023-04-24T09:03:13;1.50;;;0.60;;
48552;SDS011;34335;51.566;6.994;2023-04-24T09:05:39;0.40;;;0.40;;
48552;SDS011;34335;51.566;6.994;2023-04-24T09:08:10;0.30;;;0.30;;
48552;SDS011;34335;51.566;6.994;2023-04-24T09:10:38;0.70;;;0.50;;
48552;SDS011;34335;51.566;6.994;2023-04-24T09:13:04;0.30;;;0.30;;
48552;SDS011;34335;51.566;6.994;2023-04-24T09:15:30;1.17;;;0.50;;
48552;SDS011;34335;51.566;6.994;2023-04-24T09:17:56;0.50;;;0.40;;
48552;SDS011;34335;51.566;6.994;2023-04-24T09:20:21;0.95;;;0.55;;
48552;SDS011;34335;51.566;6.994;2023-04-24T09:22:47;0.93;;;0.68;;
48552;SDS011;34335;51.566;6.994;2023-04-24T09:25:12;0.50;;;0.30;;
48552;SDS011;34335;51.566;6.994;2023-04-24T09:27:41;1.43;;;0.67;;
48552;SDS011;34335;51.566;6.994;2023-04-24T09:30:09;0.73;;;0.45;;
48552;SDS011;34335;51.566;6.994;2023-04-24T09:32:34;2.03;;;0.50;;
48552;SDS011;34335;51.566;6.994;2023-04-24T09:35:12;0.70;;;0.40;;
48552;SDS011;34335;51.566;6.994;2023-04-24T09:37:41;0.20;;;0.20;;
48552;SDS011;34335;51.566;6.994;2023-04-24T09:40:12;0.85;;;0.50;;
48552;SDS011;34335;51.566;6.994;2023-04-24T09:42:42;2.15;;;0.95;;
48552;SDS011;34335;51.566;6.994;2023-04-24T09:45:11;3.80;;;1.10;;
48552;SDS011;34335;51.566;6.994;2023-04-24T09:47:37;4.90;;;1.25;;
48552;SDS011;34335;51.566;6.994;2023-04-24T09:50:10;2.30;;;0.95;;
48552;SDS011;34335;51.566;6.994;2023-04-24T09:52:39;1.98;;;1.27;;
48552;SDS011;34335;51.566;6.994;2023-04-24T09:55:10;3.03;;;1.50;;
48552;SDS011;34335;51.566;6.994;2023-04-24T09:57:48;3.80;;;1.48;;
48552;SDS011;34335;51.566;6.994;2023-04-24T10:00:18;3.75;;;2.03;;
48552;SDS011;34335;51.566;6.994;2023-04-24T10:02:50;2.33;;;1.30;;
48552;SDS011;34335;51.566;6.994;2023-04-24T10:05:22;3.90;;;1.58;;
48552;SDS011;34335;51.566;6.994;2023-04-24T10:07:49;4.65;;;1.38;;
48552;SDS011;34335;51.566;6.994;2023-04-24T10:10:15;1.20;;;0.80;;
48552;SDS011;34335;51.566;6.994;2023-04-24T10:12:41;5.55;;;1.55;;
48552;SDS011;34335;51.566;6.994;2023-04-24T10:15:07;4.20;;;1.13;;
48552;SDS011;34335;51.566;6.994;2023-04-24T10:17:37;3.92;;;1.10;;
48552;SDS011;34335;51.566;6.994;2023-04-24T10:20:04;2.95;;;1.33;;
48552;SDS011;34335;51.566;6.994;2023-04-24T10:22:31;4.88;;;1.77;;
48552;SDS011;34335;51.566;6.994;2023-04-24T10:24:57;3.78;;;1.60;;
48552;SDS011;34335;51.566;6.994;2023-04-24T10:27:23;3.03;;;1.35;;
48552;SDS011;34335;51.566;6.994;2023-04-24T10:29:52;1.88;;;1.23;;
48552;SDS011;34335;51.566;6.994;2023-04-24T10:32:18;1.92;;;0.88;;
48552;SDS011;34335;51.566;6.994;2023-04-24T10:34:43;2.63;;;1.13;;
48552;SDS011;34335;51.566;6.994;2023-04-24T10:37:08;4.93;;;1.37;;
48552;SDS011;34335;51.566;6.994;2023-04-24T10:39:34;2.78;;;1.67;;
48552;SDS011;34335;51.566;6.994;2023-04-24T10:42:00;1.27;;;0.70;;
48552;SDS011;34335;51.566;6.994;2023-04-24T10:44:25;4.45;;;1.75;;
48552;SDS011;34335;51.566;6.994;2023-04-24T10:47:01;5.85;;;1.65;;
48552;SDS011;34335;51.566;6.994;2023-04-24T10:49:30;5.03;;;1.65;;
48552;SDS011;34335;51.566;6.994;2023-04-24T10:51:59;2.63;;;1.15;;
48552;SDS011;34335;51.566;6.994;2023-04-24T10:54:28;2.35;;;1.38;;
48552;SDS011;34335;51.566;6.994;2023-04-24T10:59:49;4.60;;;2.00;;
48552;SDS011;34335;51.566;6.994;2023-04-24T11:02:15;9.57;;;2.00;;
48552;SDS011;34335;51.566;6.994;2023-04-24T11:04:42;6.03;;;1.65;;
48552;SDS011;34335;51.566;6.994;2023-04-24T11:07:08;2.72;;;1.27;;
48552;SDS011;34335;51.566;6.994;2023-04-24T11:09:34;4.32;;;2.17;;
48552;SDS011;34335;51.566;6.994;2023-04-24T11:17:32;3.88;;;1.63;;
48552;SDS011;34335;51.566;6.994;2023-04-24T11:20:09;2.30;;;1.25;;
48552;SDS011;34335;51.566;6.994;2023-04-24T11:22:37;6.70;;;1.85;;
48552;SDS011;34335;51.566;6.994;2023-04-24T11:25:07;1.95;;;1.20;;
48552;SDS011;34335;51.566;6.994;2023-04-24T11:27:43;2.42;;;1.10;;
48552;SDS011;34335;51.566;6.994;2023-04-24T11:30:13;0.63;;;0.43;;
48552;SDS011;34335;51.566;6.994;2023-04-24T11:32:42;9.35;;;4.00;;
48552;SDS011;34335;51.566;6.994;2023-04-24T11:37:39;2.60;;;1.05;;
48552;SDS011;34335;51.566;6.994;2023-04-24T11:40:06;4.13;;;1.25;;
48552;SDS011;34335;51.566;6.994;2023-04-24T11:42:40;3.70;;;1.25;;
48552;SDS011;34335;51.566;6.994;2023-04-24T11:45:10;5.57;;;2.10;;
48552;SDS011;34335;51.566;6.994;2023-04-24T11:47:38;3.60;;;1.85;;
48552;SDS011;34335;51.566;6.994;2023-04-24T11:50:05;1.90;;;1.13;;
48552;SDS011;34335;51.566;6.994;2023-04-24T11:52:33;7.38;;;1.83;;
48552;SDS011;34335;51.566;6.994;2023-04-24T11:55:02;3.00;;;1.25;;
48552;SDS011;34335;51.566;6.994;2023-04-24T11:57:28;6.10;;;1.40;;
48552;SDS011;34335;51.566;6.994;2023-04-24T11:59:58;1.73;;;1.00;;
48552;SDS011;34335;51.566;6.994;2023-04-24T12:02:24;6.13;;;0.93;;
48552;SDS011;34335;51.566;6.994;2023-04-24T12:04:53;3.78;;;1.13;;
48552;SDS011;34335;51.566;6.994;2023-04-24T12:07:19;3.80;;;1.80;;
48552;SDS011;34335;51.566;6.994;2023-04-24T12:09:46;2.30;;;0.88;;
48552;SDS011;34335;51.566;6.994;2023-04-24T12:12:13;14.50;;;1.65;;
48552;SDS011;34335;51.566;6.994;2023-04-24T12:14:50;3.05;;;1.40;;
48552;SDS011;34335;51.566;6.994;2023-04-24T12:17:23;2.50;;;1.17;;
48552;SDS011;34335;51.566;6.994;2023-04-24T12:19:51;5.18;;;1.05;;
48552;SDS011;34335;51.566;6.994;2023-04-24T12:22:17;2.42;;;1.38;;
48552;SDS011;34335;51.566;6.994;2023-04-24T12:27:24;1.30;;;0.63;;
48552;SDS011;34335;51.566;6.994;2023-04-24T12:29:53;1.63;;;0.88;;
48552;SDS011;34335;51.566;6.994;2023-04-24T12:32:20;2.85;;;1.35;;
48552;SDS011;34335;51.566;6.994;2023-04-24T12:34:46;3.15;;;1.73;;
48552;SDS011;34335;51.566;6.994;2023-04-24T12:37:11;0.90;;;0.67;;
48552;SDS011;34335;51.566;6.994;2023-04-24T12:39:37;1.92;;;1.05;;
48552;SDS011;34335;51.566;6.994;2023-04-24T12:42:03;2.72;;;1.27;;
48552;SDS011;34335;51.566;6.994;2023-04-24T12:44:31;2.50;;;1.37;;
48552;SDS011;34335;51.566;6.994;2023-04-24T12:46:59;2.85;;;1.20;;
48552;SDS011;34335;51.566;6.994;2023-04-24T12:49:25;4.90;;;1.77;;
48552;SDS011;34335;51.566;6.994;2023-04-24T12:51:51;7.57;;;1.25;;
48552;SDS011;34335;51.566;6.994;2023-04-24T12:54:16;2.05;;;0.95;;
48552;SDS011;34335;51.566;6.994;2023-04-24T12:56:41;2.13;;;1.13;;
48552;SDS011;34335;51.566;6.994;2023-04-24T12:59:07;2.67;;;1.23;;
48552;SDS011;34335;51.566;6.994;2023-04-24T13:01:32;2.93;;;1.13;;
48552;SDS011;34335;51.566;6.994;2023-04-24T13:03:57;1.48;;;0.88;;
48552;SDS011;34335;51.566;6.994;2023-04-24T13:06:23;0.98;;;0.73;;
48552;SDS011;34335;51.566;6.994;2023-04-24T13:08:48;1.58;;;1.13;;
48552;SDS011;34335;51.566;6.994;2023-04-24T13:11:13;0.50;;;0.50;;
48552;SDS011;34335;51.566;6.994;2023-04-24T13:13:39;1.38;;;0.93;;
48552;SDS011;34335;51.566;6.994;2023-04-24T13:16:04;3.53;;;0.90;;
48552;SDS011;34335;51.566;6.994;2023-04-24T13:18:30;3.13;;;0.73;;
48552;SDS011;34335;51.566;6.994;2023-04-24T13:20:55;3.75;;;0.73;;
48552;SDS011;34335;51.566;6.994;2023-04-24T13:23:20;0.87;;;0.50;;
48552;SDS011;34335;51.566;6.994;2023-04-24T13:25:46;1.13;;;0.87;;
48552;SDS011;34335;51.566;6.994;2023-04-24T13:28:12;1.33;;;0.77;;
48552;SDS011;34335;51.566;6.994;2023-04-24T13:30:37;2.08;;;1.08;;
48552;SDS011;34335;51.566;6.994;2023-04-24T13:33:03;0.90;;;0.60;;
48552;SDS011;34335;51.566;6.994;2023-04-24T13:35:28;1.08;;;0.63;;
48552;SDS011;34335;51.566;6.994;2023-04-24T13:37:53;1.50;;;1.00;;
48552;SDS011;34335;51.566;6.994;2023-04-24T13:40:18;1.95;;;0.93;;
48552;SDS011;34335;51.566;6.994;2023-04-24T13:42:44;2.63;;;1.15;;
48552;SDS011;34335;51.566;6.994;2023-04-24T13:45:09;1.73;;;0.85;;
48552;SDS011;34335;51.566;6.994;2023-04-24T13:47:35;2.70;;;1.67;;
48552;SDS011;34335;51.566;6.994;2023-04-24T13:50:01;1.35;;;0.85;;
48552;SDS011;34335;51.566;6.994;2023-04-24T13:52:26;3.75;;;1.13;;
48552;SDS011;34335;51.566;6.994;2023-04-24T13:54:51;1.73;;;0.82;;
48552;SDS011;34335;51.566;6.994;2023-04-24T13:57:16;3.33;;;0.93;;
48552;SDS011;34335;51.566;6.994;2023-04-24T13:59:42;3.33;;;0.90;;
48552;SDS011;34335;51.566;6.994;2023-04-24T14:02:07;1.55;;;0.57;;
48552;SDS011;34335;51.566;6.994;2023-04-24T14:04:33;1.50;;;0.70;;
48552;SDS011;34335;51.566;6.994;2023-04-24T14:06:58;3.13;;;1.20;;
48552;SDS011;34335;51.566;6.994;2023-04-24T14:09:23;3.33;;;1.40;;
48552;SDS011;34335;51.566;6.994;2023-04-24T14:11:48;0.85;;;0.68;;
48552;SDS011;34335;51.566;6.994;2023-04-24T14:14:14;1.23;;;0.70;;
48552;SDS011;34335;51.566;6.994;2023-04-24T14:16:39;0.93;;;0.50;;
48552;SDS011;34335;51.566;6.994;2023-04-24T14:19:05;1.23;;;0.67;;
48552;SDS011;34335;51.566;6.994;2023-04-24T14:21:31;1.90;;;0.90;;
48552;SDS011;34335;51.566;6.994;2023-04-24T14:23:56;2.33;;;1.02;;
48552;SDS011;34335;51.566;6.994;2023-04-24T14:26:21;2.23;;;0.97;;
48552;SDS011;34335;51.566;6.994;2023-04-24T14:28:47;1.38;;;0.88;;
48552;SDS011;34335;51.566;6.994;2023-04-24T14:31:12;1.87;;;0.60;;
48552;SDS011;34335;51.566;6.994;2023-04-24T14:33:37;1.43;;;0.70;;
48552;SDS011;34335;51.566;6.994;2023-04-24T14:36:03;1.73;;;0.90;;
48552;SDS011;34335;51.566;6.994;2023-04-24T14:38:30;2.63;;;1.20;;
48552;SDS011;34335;51.566;6.994;2023-04-24T14:40:56;3.15;;;1.55;;
48552;SDS011;34335;51.566;6.994;2023-04-24T14:43:21;4.00;;;1.63;;
48552;SDS011;34335;51.566;6.994;2023-04-24T14:45:47;4.78;;;2.20;;
48552;SDS011;34335;51.566;6.994;2023-04-24T14:48:12;2.83;;;1.33;;
48552;SDS011;34335;51.566;6.994;2023-04-24T14:50:38;3.53;;;1.08;;
48552;SDS011;34335;51.566;6.994;2023-04-24T14:53:03;3.92;;;1.73;;
48552;SDS011;34335;51.566;6.994;2023-04-24T14:55:29;2.15;;;1.15;;